LOT5NG EPWA-EDDL
Flight info
| Callsign | LOT5NG |
|---|---|
| Flight time | 1h 29m |
| Altitude | 36000 |
| Route | LOLSI DCT DIBLO DCT INDIG DCT SUBIX DCT POVEL DCT PIROT T851 DENOL/N0408F260 T851 HALME HALME1A |
| Aircraft | B738/M-SDE2E3FGIJ1RWY/LB1 |
Departure
| Time | 2026-05-06 17:04 |
|---|---|
| Airport | Warsaw Chopin Airport (EPWA) |
Arrival
| Time | 2026-05-06 18:33 |
|---|---|
| Airport | Düsseldorf Airport (EDDL) |
| Time | Latitude | Longitude | Altitude | Speed | Heading |
|---|---|---|---|---|---|
| 2026-05-06 16:20 | 52.16882 | 20.97253 | 335 ft | 0 kts | 75° |
| 2026-05-06 16:55 | 52.16881 | 20.97246 | 338 ft | 3 kts | 75° |
| 2026-05-06 16:55 | 52.16874 | 20.97204 | 332 ft | 4 kts | 75° |
| 2026-05-06 16:55 | 52.16871 | 20.97187 | 332 ft | 4 kts | 75° |
| 2026-05-06 16:55 | 52.16865 | 20.97153 | 332 ft | 4 kts | 79° |
| 2026-05-06 16:56 | 52.16866 | 20.97113 | 334 ft | 4 kts | 118° |
| 2026-05-06 16:56 | 52.16883 | 20.97081 | 334 ft | 4 kts | 148° |
| 2026-05-06 16:56 | 52.16889 | 20.97075 | 334 ft | 0 kts | 152° |
| 2026-05-06 16:59 | 52.16887 | 20.97077 | 334 ft | 2 kts | 152° |
| 2026-05-06 17:00 | 52.16868 | 20.97093 | 334 ft | 4 kts | 152° |
| 2026-05-06 17:00 | 52.16834 | 20.97123 | 336 ft | 7 kts | 152° |
| 2026-05-06 17:00 | 52.16787 | 20.97164 | 338 ft | 9 kts | 152° |
| 2026-05-06 17:00 | 52.16734 | 20.97210 | 335 ft | 8 kts | 152° |
| 2026-05-06 17:01 | 52.16683 | 20.97255 | 338 ft | 8 kts | 152° |
| 2026-05-06 17:01 | 52.16633 | 20.97298 | 337 ft | 8 kts | 152° |
| 2026-05-06 17:01 | 52.16584 | 20.97350 | 335 ft | 10 kts | 131° |
| 2026-05-06 17:01 | 52.16546 | 20.97471 | 338 ft | 14 kts | 115° |
| 2026-05-06 17:02 | 52.16503 | 20.97625 | 338 ft | 16 kts | 115° |
| 2026-05-06 17:02 | 52.16459 | 20.97774 | 335 ft | 13 kts | 126° |
| 2026-05-06 17:02 | 52.16378 | 20.97776 | 338 ft | 13 kts | 204° |
| 2026-05-06 17:02 | 52.16312 | 20.97727 | 337 ft | 4 kts | 205° |
| 2026-05-06 17:03 | 52.16302 | 20.97686 | 333 ft | 5 kts | 282° |
| 2026-05-06 17:03 | 52.16332 | 20.97578 | 334 ft | 30 kts | 294° |
| 2026-05-06 17:03 | 52.16528 | 20.96880 | 336 ft | 104 kts | 294° |
| 2026-05-06 17:03 | 52.16917 | 20.95487 | 347 ft | 163 kts | 293° |
| 2026-05-06 17:04 | 52.17407 | 20.93700 | 995 ft | 171 kts | 294° |
| 2026-05-06 17:04 | 52.17914 | 20.91851 | 1610 ft | 191 kts | 289° |
| 2026-05-06 17:04 | 52.18322 | 20.89671 | 1942 ft | 211 kts | 265° |
| 2026-05-06 17:04 | 52.18212 | 20.87170 | 2256 ft | 235 kts | 261° |
| 2026-05-06 17:05 | 52.18046 | 20.84375 | 2724 ft | 254 kts | 261° |
| 2026-05-06 17:05 | 52.18112 | 20.81473 | 3614 ft | 262 kts | 278° |
| 2026-05-06 17:05 | 52.18566 | 20.78596 | 4624 ft | 260 kts | 280° |
| 2026-05-06 17:05 | 52.19002 | 20.75726 | 5542 ft | 262 kts | 279° |
| 2026-05-06 17:06 | 52.19424 | 20.72817 | 6412 ft | 265 kts | 279° |
| 2026-05-06 17:06 | 52.19574 | 20.69855 | 7242 ft | 262 kts | 259° |
| 2026-05-06 17:06 | 52.19083 | 20.67003 | 8079 ft | 262 kts | 248° |
| 2026-05-06 17:06 | 52.18446 | 20.64205 | 8956 ft | 264 kts | 248° |
| 2026-05-06 17:07 | 52.17801 | 20.61379 | 9777 ft | 268 kts | 248° |
| 2026-05-06 17:07 | 52.17146 | 20.58476 | 10270 ft | 283 kts | 248° |
| 2026-05-06 17:07 | 52.16439 | 20.55322 | 10447 ft | 308 kts | 248° |
| 2026-05-06 17:07 | 52.15687 | 20.51924 | 10674 ft | 330 kts | 250° |
| 2026-05-06 17:08 | 52.15305 | 20.48186 | 11221 ft | 342 kts | 268° |
| 2026-05-06 17:08 | 52.15421 | 20.44307 | 12050 ft | 343 kts | 271° |
| 2026-05-06 17:08 | 52.15596 | 20.40427 | 12890 ft | 344 kts | 271° |
| 2026-05-06 17:08 | 52.15778 | 20.36527 | 13665 ft | 347 kts | 271° |
| 2026-05-06 17:09 | 52.15955 | 20.32587 | 14311 ft | 350 kts | 271° |
| 2026-05-06 17:09 | 52.16126 | 20.28605 | 14946 ft | 355 kts | 271° |
| 2026-05-06 17:09 | 52.16291 | 20.24572 | 15545 ft | 360 kts | 271° |
| 2026-05-06 17:09 | 52.16453 | 20.20489 | 16170 ft | 363 kts | 272° |
| 2026-05-06 17:10 | 52.16613 | 20.16365 | 16802 ft | 367 kts | 272° |
| 2026-05-06 17:10 | 52.16773 | 20.12190 | 17406 ft | 371 kts | 272° |
| 2026-05-06 17:10 | 52.16933 | 20.07970 | 18000 ft | 375 kts | 272° |
| 2026-05-06 17:10 | 52.17092 | 20.03709 | 18536 ft | 379 kts | 272° |
| 2026-05-06 17:11 | 52.17252 | 19.99409 | 19088 ft | 382 kts | 272° |
| 2026-05-06 17:11 | 52.17412 | 19.95077 | 19633 ft | 384 kts | 272° |
| 2026-05-06 17:11 | 52.17570 | 19.90718 | 20161 ft | 387 kts | 272° |
| 2026-05-06 17:11 | 52.17683 | 19.86322 | 20670 ft | 389 kts | 267° |
| 2026-05-06 17:12 | 52.17409 | 19.81929 | 21190 ft | 392 kts | 261° |
| 2026-05-06 17:12 | 52.16992 | 19.77527 | 21699 ft | 394 kts | 260° |
| 2026-05-06 17:12 | 52.16549 | 19.73098 | 22178 ft | 398 kts | 260° |
| 2026-05-06 17:12 | 52.16107 | 19.68587 | 22674 ft | 400 kts | 261° |
| 2026-05-06 17:13 | 52.15688 | 19.64142 | 23156 ft | 403 kts | 261° |
| 2026-05-06 17:13 | 52.15275 | 19.59615 | 23580 ft | 406 kts | 261° |
| 2026-05-06 17:13 | 52.14863 | 19.55033 | 23995 ft | 408 kts | 261° |
| 2026-05-06 17:13 | 52.14450 | 19.50421 | 24411 ft | 409 kts | 261° |
| 2026-05-06 17:14 | 52.14177 | 19.47379 | 24681 ft | 411 kts | 261° |
| 2026-05-06 17:14 | 52.13762 | 19.42773 | 25073 ft | 413 kts | 261° |
| 2026-05-06 17:14 | 52.13342 | 19.38141 | 25443 ft | 415 kts | 261° |
| 2026-05-06 17:14 | 52.12916 | 19.33487 | 25801 ft | 417 kts | 261° |
| 2026-05-06 17:15 | 52.12481 | 19.28801 | 26161 ft | 419 kts | 261° |
| 2026-05-06 17:15 | 52.12039 | 19.24104 | 26525 ft | 421 kts | 261° |
| 2026-05-06 17:15 | 52.11594 | 19.19392 | 26879 ft | 423 kts | 261° |
| 2026-05-06 17:15 | 52.11144 | 19.14652 | 27217 ft | 425 kts | 260° |
| 2026-05-06 17:16 | 52.10690 | 19.09882 | 27544 ft | 427 kts | 260° |
| 2026-05-06 17:16 | 52.10233 | 19.05100 | 27873 ft | 429 kts | 260° |
| 2026-05-06 17:16 | 52.09773 | 19.00304 | 28190 ft | 431 kts | 260° |
| 2026-05-06 17:16 | 52.09308 | 18.95473 | 28496 ft | 433 kts | 260° |
| 2026-05-06 17:17 | 52.08840 | 18.90621 | 28827 ft | 434 kts | 260° |
| 2026-05-06 17:17 | 52.08369 | 18.85773 | 29269 ft | 433 kts | 260° |
| 2026-05-06 17:17 | 52.07900 | 18.80953 | 29765 ft | 430 kts | 260° |
| 2026-05-06 17:17 | 52.07431 | 18.76167 | 30193 ft | 428 kts | 260° |
| 2026-05-06 17:18 | 52.06962 | 18.71398 | 30595 ft | 426 kts | 260° |
| 2026-05-06 17:18 | 52.06495 | 18.66666 | 31009 ft | 423 kts | 260° |
| 2026-05-06 17:18 | 52.06028 | 18.61958 | 31400 ft | 421 kts | 260° |
| 2026-05-06 17:18 | 52.05561 | 18.57267 | 31772 ft | 420 kts | 260° |
| 2026-05-06 17:19 | 52.05094 | 18.52599 | 32151 ft | 418 kts | 260° |
| 2026-05-06 17:19 | 52.04627 | 18.47955 | 32534 ft | 416 kts | 260° |
| 2026-05-06 17:19 | 52.04160 | 18.43325 | 32890 ft | 414 kts | 260° |
| 2026-05-06 17:19 | 52.03693 | 18.38716 | 33239 ft | 413 kts | 260° |
| 2026-05-06 17:20 | 52.03226 | 18.34113 | 33582 ft | 412 kts | 260° |
| 2026-05-06 17:20 | 52.02759 | 18.29540 | 33924 ft | 410 kts | 260° |
| 2026-05-06 17:20 | 52.02292 | 18.24987 | 34157 ft | 410 kts | 260° |
| 2026-05-06 17:20 | 52.01821 | 18.20409 | 34335 ft | 412 kts | 260° |
| 2026-05-06 17:21 | 52.01348 | 18.15817 | 34547 ft | 412 kts | 260° |
| 2026-05-06 17:21 | 52.00874 | 18.11237 | 34813 ft | 411 kts | 260° |
| 2026-05-06 17:21 | 52.00398 | 18.06670 | 35030 ft | 411 kts | 260° |
| 2026-05-06 17:21 | 52.00050 | 18.02061 | 35199 ft | 413 kts | 266° |
| 2026-05-06 17:22 | 52.00085 | 17.97398 | 35413 ft | 414 kts | 273° |
| 2026-05-06 17:22 | 52.00529 | 17.92785 | 35649 ft | 414 kts | 279° |
| 2026-05-06 17:22 | 52.01117 | 17.88194 | 35753 ft | 417 kts | 279° |
| 2026-05-06 17:23 | 52.02322 | 17.78971 | 35762 ft | 417 kts | 279° |
| 2026-05-06 17:23 | 52.03501 | 17.69794 | 35760 ft | 413 kts | 279° |
| 2026-05-06 17:24 | 52.04644 | 17.60687 | 35769 ft | 410 kts | 279° |
| 2026-05-06 17:24 | 52.05765 | 17.51632 | 35771 ft | 408 kts | 279° |
| 2026-05-06 17:25 | 52.06881 | 17.42538 | 35776 ft | 408 kts | 279° |
| 2026-05-06 17:25 | 52.07978 | 17.33546 | 35782 ft | 408 kts | 278° |
| 2026-05-06 17:26 | 52.09084 | 17.24412 | 35787 ft | 410 kts | 278° |
| 2026-05-06 17:26 | 52.10181 | 17.15293 | 35787 ft | 412 kts | 278° |
| 2026-05-06 17:27 | 52.11277 | 17.06124 | 35794 ft | 414 kts | 278° |
| 2026-05-06 17:27 | 52.12372 | 16.96903 | 35799 ft | 416 kts | 278° |
| 2026-05-06 17:28 | 52.13463 | 16.87641 | 35791 ft | 417 kts | 278° |
| 2026-05-06 17:28 | 52.14550 | 16.78355 | 35797 ft | 418 kts | 278° |
| 2026-05-06 17:29 | 52.15644 | 16.68942 | 35800 ft | 418 kts | 278° |
| 2026-05-06 17:29 | 52.16716 | 16.59647 | 35799 ft | 417 kts | 277° |
| 2026-05-06 17:30 | 52.17779 | 16.50359 | 35804 ft | 417 kts | 277° |
| 2026-05-06 17:30 | 52.18832 | 16.41097 | 35799 ft | 416 kts | 277° |
| 2026-05-06 17:31 | 52.19877 | 16.31836 | 35806 ft | 415 kts | 277° |
| 2026-05-06 17:31 | 52.20913 | 16.22586 | 35806 ft | 414 kts | 277° |
| 2026-05-06 17:32 | 52.21939 | 16.13348 | 35808 ft | 414 kts | 277° |
| 2026-05-06 17:32 | 52.22958 | 16.04110 | 35807 ft | 414 kts | 277° |
| 2026-05-06 17:33 | 52.23962 | 15.94935 | 35811 ft | 414 kts | 277° |
| 2026-05-06 17:33 | 52.24967 | 15.85686 | 35805 ft | 414 kts | 277° |
| 2026-05-06 17:34 | 52.25965 | 15.76426 | 35810 ft | 414 kts | 276° |
| 2026-05-06 17:34 | 52.26956 | 15.67159 | 35805 ft | 415 kts | 276° |
| 2026-05-06 17:35 | 52.27942 | 15.57872 | 35809 ft | 415 kts | 276° |
| 2026-05-06 17:35 | 52.28922 | 15.48565 | 35812 ft | 416 kts | 276° |
| 2026-05-06 17:36 | 52.30380 | 15.34590 | 35813 ft | 417 kts | 276° |
| 2026-05-06 17:36 | 52.31351 | 15.25180 | 35821 ft | 417 kts | 276° |
| 2026-05-06 17:37 | 52.32309 | 15.15828 | 35816 ft | 417 kts | 276° |
| 2026-05-06 17:37 | 52.33265 | 15.06406 | 35820 ft | 418 kts | 276° |
| 2026-05-06 17:38 | 52.34204 | 14.97093 | 35876 ft | 419 kts | 275° |
| 2026-05-06 17:38 | 52.35152 | 14.87591 | 35828 ft | 421 kts | 275° |
| 2026-05-06 17:39 | 52.36090 | 14.78126 | 35822 ft | 422 kts | 275° |
| 2026-05-06 17:39 | 52.37024 | 14.68637 | 35823 ft | 423 kts | 274° |
| 2026-05-06 17:40 | 52.37875 | 14.59129 | 35818 ft | 421 kts | 269° |
| 2026-05-06 17:40 | 52.37621 | 14.49651 | 35830 ft | 416 kts | 261° |
| 2026-05-06 17:41 | 52.37084 | 14.40210 | 35828 ft | 417 kts | 261° |
| 2026-05-06 17:41 | 52.36555 | 14.30755 | 35826 ft | 418 kts | 261° |
| 2026-05-06 17:42 | 52.36037 | 14.21286 | 35828 ft | 418 kts | 261° |
| 2026-05-06 17:42 | 52.35519 | 14.11802 | 35825 ft | 418 kts | 261° |
| 2026-05-06 17:43 | 52.34996 | 14.02326 | 35828 ft | 419 kts | 261° |
| 2026-05-06 17:43 | 52.34465 | 13.92844 | 35828 ft | 419 kts | 261° |
| 2026-05-06 17:44 | 52.33926 | 13.83369 | 35830 ft | 419 kts | 261° |
| 2026-05-06 17:44 | 52.33379 | 13.73901 | 35827 ft | 418 kts | 261° |
| 2026-05-06 17:45 | 52.32825 | 13.64425 | 35831 ft | 418 kts | 261° |
| 2026-05-06 17:45 | 52.32263 | 13.54958 | 35829 ft | 418 kts | 261° |
| 2026-05-06 17:46 | 52.31694 | 13.45498 | 35834 ft | 419 kts | 261° |
| 2026-05-06 17:46 | 52.31116 | 13.36028 | 35836 ft | 419 kts | 261° |
| 2026-05-06 17:47 | 52.30531 | 13.26562 | 35832 ft | 419 kts | 261° |
| 2026-05-06 17:47 | 52.29938 | 13.17082 | 35827 ft | 420 kts | 261° |
| 2026-05-06 17:48 | 52.29434 | 13.09129 | 35820 ft | 420 kts | 261° |
| 2026-05-06 17:48 | 52.28825 | 12.99635 | 35807 ft | 421 kts | 261° |
| 2026-05-06 17:49 | 52.28208 | 12.90129 | 35809 ft | 421 kts | 261° |
| 2026-05-06 17:49 | 52.27582 | 12.80614 | 35809 ft | 422 kts | 261° |
| 2026-05-06 17:50 | 52.26949 | 12.71099 | 35812 ft | 422 kts | 261° |
| 2026-05-06 17:50 | 52.26306 | 12.61565 | 35806 ft | 422 kts | 261° |
| 2026-05-06 17:51 | 52.25656 | 12.52038 | 35806 ft | 423 kts | 261° |
| 2026-05-06 17:51 | 52.24998 | 12.42505 | 35812 ft | 423 kts | 261° |
| 2026-05-06 17:52 | 52.24332 | 12.32968 | 35811 ft | 423 kts | 260° |
| 2026-05-06 17:52 | 52.23658 | 12.23432 | 35805 ft | 423 kts | 260° |
| 2026-05-06 17:53 | 52.22975 | 12.13892 | 35809 ft | 423 kts | 260° |
| 2026-05-06 17:53 | 52.22286 | 12.04360 | 35806 ft | 423 kts | 260° |
| 2026-05-06 17:54 | 52.21588 | 11.94826 | 35808 ft | 423 kts | 260° |
| 2026-05-06 17:54 | 52.20882 | 11.85293 | 35804 ft | 424 kts | 260° |
| 2026-05-06 17:55 | 52.20169 | 11.75757 | 35801 ft | 424 kts | 260° |
| 2026-05-06 17:55 | 52.19442 | 11.66152 | 35798 ft | 424 kts | 260° |
| 2026-05-06 17:56 | 52.18712 | 11.56615 | 35800 ft | 424 kts | 260° |
| 2026-05-06 17:56 | 52.17975 | 11.47080 | 35797 ft | 424 kts | 260° |
| 2026-05-06 17:57 | 52.17230 | 11.37551 | 35797 ft | 424 kts | 260° |
| 2026-05-06 17:57 | 52.16475 | 11.27982 | 35800 ft | 425 kts | 260° |
| 2026-05-06 17:58 | 52.15711 | 11.18414 | 35797 ft | 425 kts | 260° |
| 2026-05-06 17:58 | 52.14941 | 11.08867 | 35795 ft | 425 kts | 260° |
| 2026-05-06 17:59 | 52.14162 | 10.99308 | 35799 ft | 426 kts | 259° |
| 2026-05-06 17:59 | 52.13378 | 10.89754 | 35809 ft | 426 kts | 260° |
| 2026-05-06 18:00 | 52.12641 | 10.80175 | 35808 ft | 428 kts | 262° |
| 2026-05-06 18:00 | 52.12221 | 10.70506 | 35797 ft | 429 kts | 264° |
| 2026-05-06 18:01 | 52.11856 | 10.60700 | 35803 ft | 429 kts | 264° |
| 2026-05-06 18:01 | 52.11467 | 10.51003 | 35792 ft | 429 kts | 263° |
| 2026-05-06 18:02 | 52.11051 | 10.41317 | 35801 ft | 429 kts | 263° |
| 2026-05-06 18:02 | 52.10623 | 10.31646 | 35800 ft | 429 kts | 263° |
| 2026-05-06 18:03 | 52.10186 | 10.21980 | 35805 ft | 429 kts | 263° |
| 2026-05-06 18:03 | 52.09742 | 10.12320 | 35804 ft | 428 kts | 263° |
| 2026-05-06 18:04 | 52.09290 | 10.02666 | 35809 ft | 428 kts | 263° |
| 2026-05-06 18:04 | 52.08831 | 9.93023 | 35805 ft | 428 kts | 263° |
| 2026-05-06 18:05 | 52.08367 | 9.83441 | 35821 ft | 428 kts | 263° |
| 2026-05-06 18:05 | 52.07889 | 9.73739 | 35813 ft | 428 kts | 263° |
| 2026-05-06 18:06 | 52.07408 | 9.64125 | 35809 ft | 428 kts | 263° |
| 2026-05-06 18:06 | 52.06916 | 9.54446 | 35816 ft | 428 kts | 263° |
| 2026-05-06 18:07 | 52.06417 | 9.44787 | 35813 ft | 429 kts | 263° |
| 2026-05-06 18:07 | 52.05910 | 9.35130 | 35821 ft | 429 kts | 263° |
| 2026-05-06 18:08 | 52.05395 | 9.25462 | 35833 ft | 430 kts | 263° |
| 2026-05-06 18:08 | 52.04409 | 9.15859 | 35839 ft | 429 kts | 257° |
| 2026-05-06 18:09 | 52.03204 | 9.06397 | 35837 ft | 429 kts | 256° |
| 2026-05-06 18:09 | 52.02002 | 8.96858 | 35826 ft | 430 kts | 257° |
| 2026-05-06 18:10 | 52.00815 | 8.87334 | 35833 ft | 431 kts | 257° |
| 2026-05-06 18:10 | 51.99626 | 8.77819 | 35829 ft | 425 kts | 257° |
| 2026-05-06 18:11 | 51.99049 | 8.73213 | 35797 ft | 411 kts | 257° |
| 2026-05-06 18:11 | 51.98665 | 8.70174 | 35528 ft | 409 kts | 257° |
| 2026-05-06 18:11 | 51.97899 | 8.64132 | 34493 ft | 417 kts | 257° |
| 2026-05-06 18:11 | 51.97300 | 8.59426 | 33687 ft | 424 kts | 257° |
| 2026-05-06 18:12 | 51.96701 | 8.54727 | 32832 ft | 428 kts | 257° |
| 2026-05-06 18:12 | 51.96092 | 8.49961 | 31982 ft | 432 kts | 257° |
| 2026-05-06 18:12 | 51.95479 | 8.45165 | 31117 ft | 437 kts | 257° |
| 2026-05-06 18:12 | 51.94857 | 8.40322 | 30253 ft | 442 kts | 258° |
| 2026-05-06 18:13 | 51.94227 | 8.35427 | 29350 ft | 445 kts | 258° |
| 2026-05-06 18:13 | 51.93593 | 8.30514 | 28416 ft | 446 kts | 258° |
| 2026-05-06 18:13 | 51.92891 | 8.25634 | 27749 ft | 442 kts | 253° |
| 2026-05-06 18:13 | 51.91976 | 8.20919 | 27229 ft | 435 kts | 251° |
| 2026-05-06 18:14 | 51.90999 | 8.16311 | 26604 ft | 431 kts | 251° |
| 2026-05-06 18:14 | 51.90007 | 8.11740 | 25917 ft | 430 kts | 250° |
| 2026-05-06 18:14 | 51.89024 | 8.07192 | 25355 ft | 425 kts | 251° |
| 2026-05-06 18:14 | 51.88062 | 8.02693 | 24654 ft | 424 kts | 251° |
| 2026-05-06 18:15 | 51.87106 | 7.98171 | 24001 ft | 423 kts | 251° |
| 2026-05-06 18:15 | 51.86164 | 7.93684 | 23406 ft | 420 kts | 251° |
| 2026-05-06 18:15 | 51.85231 | 7.89227 | 22719 ft | 417 kts | 251° |
| 2026-05-06 18:15 | 51.84305 | 7.84806 | 22116 ft | 412 kts | 251° |
| 2026-05-06 18:16 | 51.83390 | 7.80440 | 21548 ft | 407 kts | 251° |
| 2026-05-06 18:16 | 51.82483 | 7.76136 | 21009 ft | 403 kts | 250° |
| 2026-05-06 18:16 | 51.81343 | 7.72104 | 20842 ft | 389 kts | 240° |
| 2026-05-06 18:16 | 51.79832 | 7.68480 | 20179 ft | 390 kts | 235° |
| 2026-05-06 18:17 | 51.78233 | 7.64925 | 19516 ft | 391 kts | 234° |
| 2026-05-06 18:17 | 51.76624 | 7.61383 | 18910 ft | 390 kts | 234° |
| 2026-05-06 18:17 | 51.75029 | 7.57868 | 18429 ft | 386 kts | 234° |
| 2026-05-06 18:17 | 51.73962 | 7.55504 | 18073 ft | 384 kts | 235° |
| 2026-05-06 18:18 | 51.72397 | 7.52026 | 17473 ft | 382 kts | 235° |
| 2026-05-06 18:18 | 51.70847 | 7.48568 | 16881 ft | 380 kts | 235° |
| 2026-05-06 18:18 | 51.69303 | 7.45116 | 16304 ft | 378 kts | 235° |
| 2026-05-06 18:18 | 51.67774 | 7.41699 | 15744 ft | 376 kts | 236° |
| 2026-05-06 18:19 | 51.66246 | 7.38285 | 15190 ft | 374 kts | 236° |
| 2026-05-06 18:19 | 51.64724 | 7.34885 | 14649 ft | 373 kts | 236° |
| 2026-05-06 18:19 | 51.63225 | 7.31543 | 14421 ft | 365 kts | 236° |
| 2026-05-06 18:19 | 51.61757 | 7.28277 | 14177 ft | 355 kts | 236° |
| 2026-05-06 18:20 | 51.60327 | 7.25097 | 13962 ft | 346 kts | 236° |
| 2026-05-06 18:20 | 51.58938 | 7.22015 | 13882 ft | 334 kts | 236° |
| 2026-05-06 18:20 | 51.57605 | 7.19058 | 13864 ft | 320 kts | 236° |
| 2026-05-06 18:20 | 51.56326 | 7.16227 | 13848 ft | 307 kts | 236° |
| 2026-05-06 18:21 | 51.55065 | 7.13430 | 13185 ft | 316 kts | 236° |
| 2026-05-06 18:21 | 51.53735 | 7.10479 | 12094 ft | 337 kts | 236° |
| 2026-05-06 18:21 | 51.52316 | 7.07335 | 11205 ft | 352 kts | 236° |
| 2026-05-06 18:21 | 51.50915 | 7.04245 | 11043 ft | 332 kts | 236° |
| 2026-05-06 18:22 | 51.49588 | 7.01330 | 10901 ft | 314 kts | 236° |
| 2026-05-06 18:22 | 51.48334 | 6.98577 | 10723 ft | 299 kts | 236° |
| 2026-05-06 18:22 | 51.47094 | 6.95851 | 10286 ft | 299 kts | 236° |
| 2026-05-06 18:22 | 51.45880 | 6.93180 | 9918 ft | 300 kts | 236° |
| 2026-05-06 18:23 | 51.44639 | 6.90454 | 9640 ft | 298 kts | 236° |
| 2026-05-06 18:23 | 51.43424 | 6.87790 | 9344 ft | 295 kts | 236° |
| 2026-05-06 18:23 | 51.42215 | 6.85141 | 9029 ft | 294 kts | 236° |
| 2026-05-06 18:23 | 51.41013 | 6.82511 | 8724 ft | 292 kts | 236° |
| 2026-05-06 18:24 | 51.39815 | 6.79891 | 8407 ft | 291 kts | 236° |
| 2026-05-06 18:24 | 51.38623 | 6.77287 | 8099 ft | 289 kts | 236° |
| 2026-05-06 18:24 | 51.37439 | 6.74704 | 7794 ft | 288 kts | 236° |
| 2026-05-06 18:24 | 51.36254 | 6.72123 | 7498 ft | 287 kts | 236° |
| 2026-05-06 18:25 | 51.35079 | 6.69565 | 7199 ft | 285 kts | 236° |
| 2026-05-06 18:25 | 51.33889 | 6.66975 | 6900 ft | 284 kts | 236° |
| 2026-05-06 18:25 | 51.32722 | 6.64439 | 6615 ft | 282 kts | 236° |
| 2026-05-06 18:25 | 51.31561 | 6.61920 | 6320 ft | 281 kts | 235° |
| 2026-05-06 18:26 | 51.30392 | 6.59424 | 6028 ft | 280 kts | 235° |
| 2026-05-06 18:26 | 51.29223 | 6.56942 | 5715 ft | 279 kts | 235° |
| 2026-05-06 18:26 | 51.28056 | 6.54466 | 5432 ft | 278 kts | 235° |
| 2026-05-06 18:26 | 51.26881 | 6.51966 | 5164 ft | 277 kts | 235° |
| 2026-05-06 18:27 | 51.25745 | 6.49546 | 4977 ft | 273 kts | 235° |
| 2026-05-06 18:27 | 51.24613 | 6.47134 | 4911 ft | 264 kts | 235° |
| 2026-05-06 18:27 | 51.23507 | 6.44906 | 4804 ft | 257 kts | 225° |
| 2026-05-06 18:27 | 51.21958 | 6.43488 | 4605 ft | 254 kts | 193° |
| 2026-05-06 18:28 | 51.20232 | 6.43463 | 4267 ft | 248 kts | 163° |
| 2026-05-06 18:28 | 51.18792 | 6.44707 | 4112 ft | 227 kts | 134° |
| 2026-05-06 18:28 | 51.18032 | 6.46739 | 3978 ft | 207 kts | 98° |
| 2026-05-06 18:28 | 51.17984 | 6.48948 | 3827 ft | 195 kts | 84° |
| 2026-05-06 18:29 | 51.18064 | 6.51110 | 3525 ft | 196 kts | 83° |
| 2026-05-06 18:29 | 51.18157 | 6.53255 | 3328 ft | 190 kts | 80° |
| 2026-05-06 18:29 | 51.18606 | 6.55080 | 3255 ft | 172 kts | 53° |
| 2026-05-06 18:29 | 51.19272 | 6.56707 | 3090 ft | 176 kts | 54° |
| 2026-05-06 18:30 | 51.19966 | 6.58299 | 2858 ft | 173 kts | 52° |
| 2026-05-06 18:30 | 51.20674 | 6.59823 | 2626 ft | 169 kts | 51° |
| 2026-05-06 18:30 | 51.21371 | 6.61300 | 2411 ft | 165 kts | 51° |
| 2026-05-06 18:30 | 51.22060 | 6.62755 | 2172 ft | 164 kts | 50° |
| 2026-05-06 18:31 | 51.22744 | 6.64198 | 1945 ft | 160 kts | 51° |
| 2026-05-06 18:31 | 51.23400 | 6.65584 | 1758 ft | 157 kts | 50° |
| 2026-05-06 18:31 | 51.24070 | 6.66997 | 1551 ft | 153 kts | 51° |
| 2026-05-06 18:31 | 51.24697 | 6.68321 | 1302 ft | 145 kts | 50° |
| 2026-05-06 18:32 | 51.25301 | 6.69591 | 1112 ft | 145 kts | 51° |
| 2026-05-06 18:32 | 51.25916 | 6.70889 | 885 ft | 148 kts | 50° |
| 2026-05-06 18:32 | 51.26537 | 6.72202 | 659 ft | 148 kts | 50° |
| 2026-05-06 18:32 | 51.27148 | 6.73487 | 470 ft | 144 kts | 51° |
| 2026-05-06 18:33 | 51.27756 | 6.74775 | 297 ft | 144 kts | 50° |
| 2026-05-06 18:33 | 51.28356 | 6.76030 | 132 ft | 138 kts | 50° |
| 2026-05-06 18:33 | 51.28844 | 6.77052 | 129 ft | 86 kts | 52° |
| 2026-05-06 18:33 | 51.29018 | 6.77452 | 127 ft | 24 kts | 75° |
| 2026-05-06 18:34 | 51.28991 | 6.77584 | 128 ft | 6 kts | 137° |
| 2026-05-06 18:34 | 51.28965 | 6.77617 | 127 ft | 0 kts | 143° |
| 2026-05-06 18:35 | 51.28964 | 6.77618 | 127 ft | 2 kts | 143° |
| 2026-05-06 18:35 | 51.28918 | 6.77640 | 128 ft | 10 kts | 187° |
| 2026-05-06 18:36 | 51.28869 | 6.77573 | 126 ft | 9 kts | 232° |
| 2026-05-06 18:36 | 51.28830 | 6.77491 | 127 ft | 10 kts | 232° |
| 2026-05-06 18:36 | 51.28786 | 6.77398 | 129 ft | 11 kts | 232° |
| 2026-05-06 18:36 | 51.28735 | 6.77292 | 127 ft | 13 kts | 233° |
| 2026-05-06 18:37 | 51.28678 | 6.77173 | 124 ft | 14 kts | 232° |
| 2026-05-06 18:37 | 51.28637 | 6.77088 | 128 ft | 15 kts | 233° |
| 2026-05-06 18:37 | 51.28557 | 6.76918 | 127 ft | 14 kts | 232° |
| 2026-05-06 18:37 | 51.28498 | 6.76798 | 125 ft | 13 kts | 226° |
| 2026-05-06 18:38 | 51.28417 | 6.76813 | 122 ft | 13 kts | 143° |
| 2026-05-06 18:38 | 51.28355 | 6.76910 | 126 ft | 12 kts | 108° |
| 2026-05-06 18:38 | 51.28378 | 6.77005 | 126 ft | 5 kts | 64° |
| 2026-05-06 18:38 | 51.28373 | 6.77032 | 127 ft | 4 kts | 120° |
| 2026-05-06 18:39 | 51.28358 | 6.77045 | 128 ft | 2 kts | 150° |
| 2026-05-06 18:39 | 51.28337 | 6.77070 | 128 ft | 1 kts | 142° |
| 2026-05-06 18:39 | 51.28335 | 6.77073 | 128 ft | 0 kts | 142° |